Time;durP1;ratioP1;P1;durP2;ratioP2;P2;SDS_P1;SDS_P2;PMS_P1;PMS_P2;Temp;Humidity;BMP_temperature;BMP_pressure;BME280_temperature;BME280_humidity;BME280_pressure;Samples;Min_cycle;Max_cycle;Signal;HPM_P1;HPM_P2
2023/09/07 00:01:52;;;;;;;;;;;;;;;16.07;86.33;102415.30;105613;1270;61199;-81
2023/09/07 00:04:19;;;;;;;;;;;;;;;16.03;86.29;102416.62;105625;1273;125763;-80
2023/09/07 00:06:46;;;;;;;;;;;;;;;16.00;86.32;102417.56;105907;1272;65993;-80
2023/09/07 00:09:13;;;;;;;;;;;;;;;15.97;86.37;102417.50;105681;1276;73614;-81
2023/09/07 00:11:39;;;;;;;;;;;;;;;15.95;86.33;102415.84;105705;1271;125112;-81
2023/09/07 00:14:07;;;;;;;;;;;;;;;15.91;86.40;102411.83;105831;1271;61297;-82
2023/09/07 00:16:35;;;;;;;;;;;;;;;15.89;86.53;102409.82;105775;1271;125375;-82
2023/09/07 00:19:04;;;;;;;;;;;;;;;15.86;86.64;102414.36;105817;1270;64017;-82
2023/09/07 00:21:31;;;;;;;;;;;;;;;15.84;86.60;102412.70;105775;1271;71460;-82
2023/09/07 00:23:57;;;;;;;;;;;;;;;15.82;86.60;102413.48;105646;1270;125438;-82
2023/09/07 00:26:23;;;;;;;;;;;;;;;15.79;86.59;102415.00;105581;1276;61366;-82
2023/09/07 00:28:50;;;;;;;;;;;;;;;15.74;86.62;102417.52;105825;1271;125166;-82
2023/09/07 00:31:17;;;;;;;;;;;;;;;15.72;86.76;102417.58;105704;1270;61370;-82
2023/09/07 00:33:43;;;;;;;;;;;;;;;15.70;86.83;102419.83;105707;1270;71529;-82
2023/09/07 00:36:09;;;;;;;;;;;;;;;15.67;86.87;102419.58;105754;1271;125078;-82
2023/09/07 00:38:36;;;;;;;;;;;;;;;15.65;87.01;102417.55;105831;1271;59515;-82
2023/09/07 00:41:02;;;;;;;;;;;;;;;15.64;87.14;102418.41;105664;1270;125191;-83
2023/09/07 00:43:29;;;;;;;;;;;;;;;15.61;87.28;102418.51;105766;1271;60956;-82
2023/09/07 00:45:56;;;;;;;;;;;;;;;15.60;87.40;102417.25;105868;1271;125855;-81
2023/09/07 00:48:22;;;;;;;;;;;;;;;15.59;87.56;102415.59;105857;1271;61368;-82
2023/09/07 00:50:49;;;;;;;;;;;;;;;15.58;87.57;102413.60;105844;1271;59294;-82
2023/09/07 00:53:15;;;;;;;;;;;;;;;15.56;87.74;102415.35;105779;1272;125282;-82
2023/09/07 00:55:42;;;;;;;;;;;;;;;15.55;87.95;102415.86;105943;1272;61288;-81
2023/09/07 00:58:08;;;;;;;;;;;;;;;15.57;88.18;102416.25;105696;1276;125109;-83
2023/09/07 01:00:35;;;;;;;;;;;;;;;15.56;88.12;102418.00;105734;1270;61323;-79
2023/09/07 01:03:02;;;;;;;;;;;;;;;15.54;88.18;102416.69;105703;1271;61263;-80
2023/09/07 01:05:32;;;;;;;;;;;;;;;15.52;88.16;102413.80;105590;1270;125322;-81
2023/09/07 01:08:03;;;;;;;;;;;;;;;15.50;88.20;102414.65;105860;1271;66308;-81
2023/09/07 01:10:29;;;;;;;;;;;;;;;15.49;88.17;102416.55;105755;1273;126560;-81
2023/09/07 01:12:55;;;;;;;;;;;;;;;15.47;88.17;102412.23;105834;1273;61421;-81
2023/09/07 01:15:22;;;;;;;;;;;;;;;15.45;88.17;102414.65;105677;1271;61323;-81
2023/09/07 01:17:48;;;;;;;;;;;;;;;15.43;88.18;102416.68;105802;1273;125062;-81
2023/09/07 01:20:16;;;;;;;;;;;;;;;15.40;88.23;102415.73;105866;1271;61337;-82
2023/09/07 01:22:43;;;;;;;;;;;;;;;15.39;88.22;102417.27;105772;1270;126281;-82
2023/09/07 01:25:09;;;;;;;;;;;;;;;15.38;88.33;102418.29;105882;1269;62129;-81
2023/09/07 01:27:36;;;;;;;;;;;;;;;15.36;88.37;102415.42;105897;1270;61354;-82
2023/09/07 01:30:03;;;;;;;;;;;;;;;15.35;88.54;102414.52;105666;1274;125403;-81
2023/09/07 01:32:29;;;;;;;;;;;;;;;15.37;88.69;102415.64;105846;1268;65287;-82
2023/09/07 01:34:57;;;;;;;;;;;;;;;15.40;88.97;102419.27;105602;1275;125374;-82
2023/09/07 01:37:23;;;;;;;;;;;;;;;15.44;89.13;102414.42;105855;1271;61381;-81
2023/09/07 01:39:50;;;;;;;;;;;;;;;15.48;89.40;102409.96;105830;1271;61385;-82
2023/09/07 01:42:16;;;;;;;;;;;;;;;15.57;89.74;102413.61;105644;1273;125983;-82
2023/09/07 01:44:43;;;;;;;;;;;;;;;15.69;90.12;102416.08;105589;1271;61387;-82
2023/09/07 01:47:09;;;;;;;;;;;;;;;15.78;90.23;102414.63;105717;1271;125819;-82
2023/09/07 01:49:36;;;;;;;;;;;;;;;15.82;89.91;102414.75;105898;1272;61308;-82
2023/09/07 01:52:02;;;;;;;;;;;;;;;15.80;89.61;102414.34;105815;1273;125966;-82
2023/09/07 01:54:29;;;;;;;;;;;;;;;15.77;89.28;102417.27;105955;1273;74698;-81
2023/09/07 01:56:55;;;;;;;;;;;;;;;15.73;89.19;102416.59;105927;1271;61409;-82
2023/09/07 01:59:22;;;;;;;;;;;;;;;15.69;89.03;102415.73;105823;1273;125695;-81
2023/09/07 02:01:49;;;;;;;;;;;;;;;15.65;88.91;102420.20;105960;1271;61505;-81
2023/09/07 02:04:15;;;;;;;;;;;;;;;15.64;88.98;102425.84;105695;1270;125248;-82
2023/09/07 02:06:42;;;;;;;;;;;;;;;15.65;89.26;102424.10;105829;1273;61310;-82
2023/09/07 02:09:08;;;;;;;;;;;;;;;15.70;89.37;102423.37;105724;1275;66336;-82
2023/09/07 02:11:35;;;;;;;;;;;;;;;15.77;89.77;102419.37;105777;1273;125975;-82
2023/09/07 02:14:02;;;;;;;;;;;;;;;15.86;89.94;102421.24;105950;1273;61166;-80
2023/09/07 02:16:29;;;;;;;;;;;;;;;15.96;90.01;102425.25;105878;1271;125445;-81
2023/09/07 02:19:03;;;;;;;;;;;;;;;16.07;90.28;102418.84;105824;1275;61398;-81
2023/09/07 02:21:30;;;;;;;;;;;;;;;16.18;90.39;102420.95;105906;1270;64107;-82
2023/09/07 02:23:56;;;;;;;;;;;;;;;16.28;90.44;102418.02;105717;1273;125041;-81
2023/09/07 02:26:23;;;;;;;;;;;;;;;16.37;90.62;102420.93;105755;1272;59803;-80
2023/09/07 02:28:50;;;;;;;;;;;;;;;16.47;90.83;102422.28;105705;1270;125065;-82
2023/09/07 02:31:16;;;;;;;;;;;;;;;16.60;91.06;102426.70;105931;1269;74699;-82
2023/09/07 02:33:43;;;;;;;;;;;;;;;16.71;91.08;102426.11;105697;1274;66386;-81
2023/09/07 02:36:10;;;;;;;;;;;;;;;16.82;91.28;102426.45;105786;1274;125462;-82
2023/09/07 02:38:36;;;;;;;;;;;;;;;16.93;91.21;102429.90;105930;1273;61202;-81
2023/09/07 02:41:03;;;;;;;;;;;;;;;17.02;91.14;102430.48;105725;1271;125421;-81
2023/09/07 02:43:30;;;;;;;;;;;;;;;17.09;91.14;102429.95;105902;1273;74733;-82
2023/09/07 02:45:57;;;;;;;;;;;;;;;17.15;90.98;102432.40;105788;1273;125443;-81
2023/09/07 02:48:23;;;;;;;;;;;;;;;17.19;90.81;102431.64;105649;1276;61710;-81
2023/09/07 02:50:50;;;;;;;;;;;;;;;17.22;90.71;102427.27;105849;1272;61294;-82
2023/09/07 02:53:17;;;;;;;;;;;;;;;17.23;90.64;102424.10;105755;1274;125621;-83
2023/09/07 02:55:43;;;;;;;;;;;;;;;17.27;90.58;102422.59;105700;1276;75093;-82
2023/09/07 02:58:10;;;;;;;;;;;;;;;17.28;90.41;102419.77;105729;1270;126189;-83
2023/09/07 03:00:41;;;;;;;;;;;;;;;17.29;90.44;102422.46;105859;1271;72800;-83
2023/09/07 03:03:07;;;;;;;;;;;;;;;17.30;90.34;102423.73;105788;1272;61282;-83
2023/09/07 03:05:34;;;;;;;;;;;;;;;17.26;89.99;102421.33;105808;1274;125770;-82
2023/09/07 03:08:00;;;;;;;;;;;;;;;17.21;89.95;102428.47;105997;1273;61331;-81
2023/09/07 03:10:27;;;;;;;;;;;;;;;17.15;90.01;102423.90;105828;1277;125359;-81
2023/09/07 03:12:54;;;;;;;;;;;;;;;17.08;89.73;102423.38;105884;1269;61391;-82
2023/09/07 03:15:21;;;;;;;;;;;;;;;17.02;89.61;102425.52;105759;1274;61424;-83
2023/09/07 03:17:48;;;;;;;;;;;;;;;16.96;89.69;102423.77;105684;1270;125729;-82
2023/09/07 03:20:16;;;;;;;;;;;;;;;16.90;89.60;102425.41;105882;1274;73679;-82
2023/09/07 03:22:43;;;;;;;;;;;;;;;16.85;89.60;102421.89;105829;1270;126190;-82
2023/09/07 03:25:09;;;;;;;;;;;;;;;16.80;89.80;102418.04;105669;1276;72430;-83
2023/09/07 03:27:36;;;;;;;;;;;;;;;16.81;90.19;102416.63;105562;1276;61410;-83
2023/09/07 03:30:04;;;;;;;;;;;;;;;16.83;90.33;102419.17;105667;1274;125555;-82
2023/09/07 03:32:33;;;;;;;;;;;;;;;16.86;90.54;102420.66;105801;1271;74592;-83
2023/09/07 03:35:03;;;;;;;;;;;;;;;16.90;90.60;102426.27;105687;1274;125804;-83
2023/09/07 03:37:29;;;;;;;;;;;;;;;16.92;90.52;102429.70;105875;1271;72745;-83
2023/09/07 03:39:56;;;;;;;;;;;;;;;16.89;90.11;102427.14;105784;1271;125192;-82
2023/09/07 03:42:22;;;;;;;;;;;;;;;16.89;90.25;102429.62;105695;1276;61202;-83
2023/09/07 03:44:49;;;;;;;;;;;;;;;16.92;90.44;102428.44;105772;1270;61085;-83
2023/09/07 03:47:16;;;;;;;;;;;;;;;16.96;90.41;102429.27;105653;1271;125422;-82
2023/09/07 03:49:42;;;;;;;;;;;;;;;16.96;90.28;102431.04;105812;1270;72739;-82
2023/09/07 03:52:09;;;;;;;;;;;;;;;16.93;90.08;102431.13;105767;1271;126633;-82
2023/09/07 03:54:35;;;;;;;;;;;;;;;16.86;89.84;102434.17;105727;1271;61349;-82
2023/09/07 03:57:02;;;;;;;;;;;;;;;16.82;89.95;102435.96;105850;1272;61346;-82
2023/09/07 03:59:29;;;;;;;;;;;;;;;16.77;89.95;102436.02;105711;1273;125754;-82
2023/09/07 04:01:56;;;;;;;;;;;;;;;16.74;90.04;102441.95;105827;1273;71457;-82
2023/09/07 04:04:22;;;;;;;;;;;;;;;16.72;90.20;102442.09;105751;1270;125877;-83
2023/09/07 04:06:49;;;;;;;;;;;;;;;16.67;89.90;102443.73;105656;1270;59452;-82
2023/09/07 04:09:16;;;;;;;;;;;;;;;16.63;89.94;102445.02;105838;1273;73884;-84
2023/09/07 04:11:42;;;;;;;;;;;;;;;16.60;90.18;102440.89;105802;1270;126030;-83
2023/09/07 04:14:08;;;;;;;;;;;;;;;16.57;90.36;102443.98;105971;1273;61271;-83
2023/09/07 04:16:35;;;;;;;;;;;;;;;16.56;90.46;102440.60;105526;1270;125664;-81
2023/09/07 04:19:02;;;;;;;;;;;;;;;16.57;90.55;102440.09;105799;1274;61841;-81
2023/09/07 04:21:28;;;;;;;;;;;;;;;16.57;90.51;102441.52;105888;1271;74949;-82
2023/09/07 04:23:55;;;;;;;;;;;;;;;16.57;90.48;102443.10;105826;1270;125672;-82
2023/09/07 04:26:22;;;;;;;;;;;;;;;16.60;90.67;102443.55;105553;1270;71412;-86
2023/09/07 04:28:48;;;;;;;;;;;;;;;16.65;90.76;102446.69;105653;1273;125839;-83
2023/09/07 04:31:15;;;;;;;;;;;;;;;16.69;90.62;102448.74;105575;1274;61320;-90
2023/09/07 04:33:41;;;;;;;;;;;;;;;16.74;90.72;102450.82;105727;1270;73375;-81
2023/09/07 04:36:08;;;;;;;;;;;;;;;16.83;90.86;102452.67;105812;1270;125611;-81
2023/09/07 04:38:34;;;;;;;;;;;;;;;16.95;90.89;102454.41;105774;1270;71503;-81
2023/09/07 04:41:07;;;;;;;;;;;;;;;17.12;91.17;102458.92;105688;1273;125289;-81
2023/09/07 04:43:34;;;;;;;;;;;;;;;17.38;91.38;102461.00;105773;1271;61273;-82
2023/09/07 04:46:01;;;;;;;;;;;;;;;17.59;91.07;102460.44;105772;1271;125484;-81
2023/09/07 04:48:31;;;;;;;;;;;;;;;17.91;91.36;102460.30;105790;1270;65875;-83
2023/09/07 04:51:01;;;;;;;;;;;;;;;18.17;90.59;102460.32;105822;1269;71453;-83
2023/09/07 04:53:31;;;;;;;;;;;;;;;18.35;90.07;102461.94;105656;1272;125614;-81
2023/09/07 04:55:58;;;;;;;;;;;;;;;18.46;89.34;102461.98;105669;1271;61281;-82
2023/09/07 04:58:24;;;;;;;;;;;;;;;18.50;88.74;102463.67;105573;1270;125374;-82
2023/09/07 05:00:51;;;;;;;;;;;;;;;18.51;88.29;102468.67;105891;1270;64792;-83
2023/09/07 05:03:17;;;;;;;;;;;;;;;18.48;87.88;102466.83;105826;1270;72620;-84
2023/09/07 05:05:51;;;;;;;;;;;;;;;18.45;87.82;102465.89;105587;1273;125076;-85
2023/09/07 05:08:24;;;;;;;;;;;;;;;18.45;87.65;102465.54;105826;1271;61237;-82
2023/09/07 05:10:55;;;;;;;;;;;;;;;18.45;87.45;102463.23;105733;1273;126094;-82
2023/09/07 05:13:21;;;;;;;;;;;;;;;18.45;87.41;102461.61;105742;1270;65973;-86
2023/09/07 05:15:49;;;;;;;;;;;;;;;18.49;87.30;102462.39;105761;1272;61933;-84
2023/09/07 05:18:16;;;;;;;;;;;;;;;18.54;87.35;102465.88;105640;1271;124805;-87
2023/09/07 05:20:44;;;;;;;;;;;;;;;18.61;87.22;102472.75;105721;1274;61352;-87
2023/09/07 05:23:12;;;;;;;;;;;;;;;18.70;87.24;102475.24;105605;1269;125204;-86
2023/09/07 05:25:44;;;;;;;;;;;;;;;18.84;87.26;102479.09;106261;1273;66476;-86
2023/09/07 05:28:23;;;;;;;;;;;;;;;18.94;86.95;102475.17;105537;1274;125353;-88
2023/09/07 05:30:57;;;;;;;;;;;;;;;19.08;86.83;102475.98;105911;1270;61314;-90
2023/09/07 05:33:24;;;;;;;;;;;;;;;19.21;86.75;102479.56;105790;1270;61387;-86
2023/09/07 05:35:51;;;;;;;;;;;;;;;19.36;86.55;102480.89;105709;1273;125001;-86
2023/09/07 05:38:17;;;;;;;;;;;;;;;19.48;86.22;102484.99;105743;1270;64054;-84
2023/09/07 05:40:44;;;;;;;;;;;;;;;19.56;85.87;102491.71;105675;1271;125159;-83
2023/09/07 05:43:11;;;;;;;;;;;;;;;19.62;85.44;102488.06;105891;1273;61279;-83
2023/09/07 05:45:40;;;;;;;;;;;;;;;19.64;85.11;102489.52;105993;1270;61448;-83
2023/09/07 05:48:07;;;;;;;;;;;;;;;19.65;84.91;102491.84;105715;1270;125978;-83
2023/09/07 05:50:34;;;;;;;;;;;;;;;19.71;84.89;102489.80;106041;1275;65094;-83
2023/09/07 05:53:01;;;;;;;;;;;;;;;19.90;85.21;102488.14;105995;1269;125400;-85
2023/09/07 05:55:28;;;;;;;;;;;;;;;20.15;85.22;102493.66;106142;1270;61220;-86
2023/09/07 05:57:54;;;;;;;;;;;;;;;20.41;84.93;102493.08;106141;1270;61285;-86
2023/09/07 06:00:22;;;;;;;;;;;;;;;20.58;84.24;102490.44;106157;1269;74730;-86
2023/09/07 06:02:48;;;;;;;;;;;;;;;20.58;83.39;102494.71;106142;1273;65664;-86
2023/09/07 06:05:15;;;;;;;;;;;;;;;20.52;82.90;102495.52;105710;1273;125202;-86
2023/09/07 06:07:41;;;;;;;;;;;;;;;20.40;82.45;102496.13;105833;1273;61276;-88
2023/09/07 06:10:08;;;;;;;;;;;;;;;20.29;82.30;102497.58;105540;1270;125824;-89
2023/09/07 06:12:34;;;;;;;;;;;;;;;20.25;82.35;102498.95;105625;1271;74730;-89
2023/09/07 06:15:03;;;;;;;;;;;;;;;20.24;82.36;102499.83;105608;1270;65990;-88
2023/09/07 06:17:30;;;;;;;;;;;;;;;20.24;82.56;102501.25;105500;1271;125363;-87
2023/09/07 06:19:56;;;;;;;;;;;;;;;20.32;82.60;102500.09;105647;1271;61377;-87
2023/09/07 06:22:23;;;;;;;;;;;;;;;20.35;82.42;102505.49;105588;1271;125392;-87
2023/09/07 06:24:52;;;;;;;;;;;;;;;20.38;82.11;102503.20;105684;1269;73188;-88
2023/09/07 06:27:18;;;;;;;;;;;;;;;20.40;81.98;102506.63;105807;1270;65106;-87
2023/09/07 06:29:45;;;;;;;;;;;;;;;20.50;81.97;102515.11;105604;1269;125504;-87
2023/09/07 06:32:12;;;;;;;;;;;;;;;20.57;81.72;102512.01;105606;1270;61821;-87
2023/09/07 06:34:39;;;;;;;;;;;;;;;20.59;81.07;102510.06;105639;1274;125120;-87
2023/09/07 06:37:05;;;;;;;;;;;;;;;20.57;80.77;102512.00;105720;1269;74424;-87
2023/09/07 06:39:32;;;;;;;;;;;;;;;20.52;80.31;102511.94;106006;1270;61322;-89
2023/09/07 06:41:58;;;;;;;;;;;;;;;20.45;80.08;102513.99;105730;1267;124972;-87
2023/09/07 06:44:25;;;;;;;;;;;;;;;20.40;79.87;102513.41;105571;1270;61489;-87
2023/09/07 06:46:51;;;;;;;;;;;;;;;20.37;79.66;102512.30;105616;1275;125229;-88
2023/09/07 06:49:19;;;;;;;;;;;;;;;20.30;79.40;102513.08;105882;1270;73842;-88
2023/09/07 06:51:45;;;;;;;;;;;;;;;20.27;79.59;102511.64;105729;1270;65748;-88
2023/09/07 06:54:13;;;;;;;;;;;;;;;20.32;79.51;102514.37;105707;1268;124860;-87
2023/09/07 06:56:39;;;;;;;;;;;;;;;20.35;79.40;102513.70;105814;1267;61336;-88
2023/09/07 06:59:06;;;;;;;;;;;;;;;20.38;79.28;102516.59;105625;1268;125174;-89
2023/09/07 07:01:33;;;;;;;;;;;;;;;20.33;78.82;102521.52;105882;1273;74681;-88
2023/09/07 07:03:59;;;;;;;;;;;;;;;20.24;78.52;102522.47;105770;1270;126500;-88
2023/09/07 07:06:27;;;;;;;;;;;;;;;20.15;78.55;102527.33;105842;1270;71139;-87
2023/09/07 07:08:53;;;;;;;;;;;;;;;20.12;78.75;102526.05;105618;1270;61329;-89
2023/09/07 07:11:20;;;;;;;;;;;;;;;20.15;78.89;102528.77;105605;1273;125244;-87
2023/09/07 07:13:46;;;;;;;;;;;;;;;20.15;78.75;102529.66;105740;1274;73456;-88
2023/09/07 07:16:13;;;;;;;;;;;;;;;20.21;78.98;102529.55;105508;1270;125419;-84
2023/09/07 07:18:40;;;;;;;;;;;;;;;20.32;79.21;102527.39;105663;1269;72744;-88
2023/09/07 07:21:06;;;;;;;;;;;;;;;20.46;79.01;102530.05;105606;1271;61234;-89
2023/09/07 07:23:33;;;;;;;;;;;;;;;20.54;78.70;102526.95;105713;1272;125026;-89
2023/09/07 07:26:02;;;;;;;;;;;;;;;20.63;78.56;102527.27;105735;1271;73436;-87
2023/09/07 07:28:32;;;;;;;;;;;;;;;20.71;78.48;102529.48;105561;1270;125302;-87
2023/09/07 07:31:06;;;;;;;;;;;;;;;20.81;78.16;102532.46;105598;1277;72796;-88
2023/09/07 07:33:37;;;;;;;;;;;;;;;20.92;77.87;102537.57;105622;1270;61512;-88
2023/09/07 07:36:06;;;;;;;;;;;;;;;20.94;77.43;102535.46;105663;1270;125100;-88
2023/09/07 07:38:33;;;;;;;;;;;;;;;20.92;77.29;102537.05;105658;1272;73105;-87
2023/09/07 07:41:00;;;;;;;;;;;;;;;20.92;77.30;102536.33;105566;1270;125343;-86
2023/09/07 07:43:26;;;;;;;;;;;;;;;21.01;77.41;102533.02;105758;1271;72603;-87
2023/09/07 07:45:53;;;;;;;;;;;;;;;21.12;77.43;102534.56;102896;1274;3523953;-87
2023/09/07 07:48:20;;;;;;;;;;;;;;;21.24;77.22;102530.57;105639;1267;125224;-87
2023/09/07 07:50:47;;;;;;;;;;;;;;;21.31;76.88;102531.52;105632;1270;74707;-86
2023/09/07 07:53:14;;;;;;;;;;;;;;;21.31;76.45;102538.67;105631;1270;125561;-87
2023/09/07 07:55:41;;;;;;;;;;;;;;;21.26;76.16;102537.73;105614;1269;72743;-89
2023/09/07 07:58:08;;;;;;;;;;;;;;;21.23;76.15;102535.02;105662;1270;125196;-89
2023/09/07 08:00:38;;;;;;;;;;;;;;;21.23;76.32;102531.27;105852;1269;61234;-89
2023/09/07 08:03:08;;;;;;;;;;;;;;;21.35;76.50;102530.48;105682;1270;75147;-87
2023/09/07 08:05:39;;;;;;;;;;;;;;;21.53;76.71;102534.42;105459;1270;125233;-86
2023/09/07 08:08:06;;;;;;;;;;;;;;;21.71;76.39;102531.17;105710;1270;72578;-86
2023/09/07 08:10:40;;;;;;;;;;;;;;;21.83;76.05;102536.42;105621;1270;124733;-87
2023/09/07 08:13:07;;;;;;;;;;;;;;;21.89;75.81;102537.16;105527;1276;61301;-87
2023/09/07 08:15:35;;;;;;;;;;;;;;;21.83;75.15;102534.28;105490;1270;74913;-88
2023/09/07 08:18:01;;;;;;;;;;;;;;;21.72;75.05;102535.45;105489;1270;124579;-88
2023/09/07 08:20:29;;;;;;;;;;;;;;;21.64;75.13;102537.38;105730;1269;72747;-88
2023/09/07 08:22:57;;;;;;;;;;;;;;;21.60;75.26;102541.44;105680;1269;124347;-87
2023/09/07 08:25:25;;;;;;;;;;;;;;;21.59;75.39;102541.27;105762;1270;61149;-89
2023/09/07 08:27:55;;;;;;;;;;;;;;;21.58;75.31;102539.29;105754;1270;74740;-87
2023/09/07 08:30:25;;;;;;;;;;;;;;;21.55;75.25;102538.73;105470;1271;125276;-87
2023/09/07 08:32:52;;;;;;;;;;;;;;;21.45;74.95;102540.06;105624;1270;71315;-88
2023/09/07 08:35:19;;;;;;;;;;;;;;;21.34;75.04;102537.97;105524;1270;125344;-88
2023/09/07 08:37:46;;;;;;;;;;;;;;;21.29;75.14;102533.10;105730;1270;61314;-88
2023/09/07 08:40:12;;;;;;;;;;;;;;;21.28;75.28;102531.85;105534;1270;125128;-88
2023/09/07 08:42:39;;;;;;;;;;;;;;;21.28;75.38;102531.49;105718;1273;66388;-87
2023/09/07 08:45:07;;;;;;;;;;;;;;;21.28;75.42;102532.03;105506;1273;72785;-87
2023/09/07 08:47:34;;;;;;;;;;;;;;;21.29;75.30;102531.50;105533;1270;125473;-87
2023/09/07 08:50:01;;;;;;;;;;;;;;;21.28;75.31;102529.52;105527;1270;59900;-88
2023/09/07 08:52:28;;;;;;;;;;;;;;;21.27;75.28;102530.95;105349;1273;125425;-88
2023/09/07 08:54:58;;;;;;;;;;;;;;;21.24;75.08;102532.36;105591;1269;65644;-88
2023/09/07 08:57:25;;;;;;;;;;;;;;;21.23;75.18;102531.63;105643;1270;71612;-91
2023/09/07 08:59:51;;;;;;;;;;;;;;;21.21;75.13;102530.36;105437;1272;125585;-91
2023/09/07 09:02:18;;;;;;;;;;;;;;;21.21;75.11;102530.36;105273;1276;61321;-87
2023/09/07 09:04:44;;;;;;;;;;;;;;;21.22;75.25;102530.02;105659;1270;125407;-90
2023/09/07 09:07:11;;;;;;;;;;;;;;;21.24;75.16;102536.27;105537;1269;66399;-91
2023/09/07 09:09:38;;;;;;;;;;;;;;;21.23;75.27;102533.24;105630;1270;72802;-87
2023/09/07 09:12:11;;;;;;;;;;;;;;;21.30;75.40;102536.33;105509;1271;125206;-88
2023/09/07 09:14:41;;;;;;;;;;;;;;;21.38;75.35;102538.19;105698;1273;61195;-88
2023/09/07 09:17:10;;;;;;;;;;;;;;;21.42;75.24;102536.45;105393;1270;125053;-88
2023/09/07 09:19:37;;;;;;;;;;;;;;;21.45;75.05;102528.99;105596;1275;66323;-88
2023/09/07 09:22:03;;;;;;;;;;;;;;;21.43;74.81;102524.85;105628;1270;72788;-87
2023/09/07 09:24:34;;;;;;;;;;;;;;;21.40;74.86;102523.20;105522;1271;124866;-87
2023/09/07 09:27:01;;;;;;;;;;;;;;;21.45;74.90;102525.05;105746;1270;61288;-87
2023/09/07 09:29:28;;;;;;;;;;;;;;;21.49;74.90;102523.32;105578;1269;125519;-87
2023/09/07 09:31:54;;;;;;;;;;;;;;;21.54;74.83;102523.17;105566;1270;66299;-88
2023/09/07 09:34:21;;;;;;;;;;;;;;;21.57;74.71;102516.77;105444;1271;125203;-89
2023/09/07 09:36:47;;;;;;;;;;;;;;;21.61;74.60;102514.48;105565;1271;61326;-88
2023/09/07 09:39:23;;;;;;;;;;;;;;;21.66;74.67;102515.59;105753;1270;61499;-88
2023/09/07 09:41:51;;;;;;;;;;;;;;;21.69;74.50;102507.56;105528;1270;125440;-88
2023/09/07 09:44:18;;;;;;;;;;;;;;;21.74;74.56;102509.92;105469;1270;64435;-87
2023/09/07 09:46:44;;;;;;;;;;;;;;;21.79;74.39;102509.96;105501;1270;125498;-87
2023/09/07 09:49:13;;;;;;;;;;;;;;;21.82;74.21;102509.98;105622;1269;61568;-88
2023/09/07 09:51:39;;;;;;;;;;;;;;;21.84;73.87;102511.05;105736;1268;61345;-88
2023/09/07 09:54:06;;;;;;;;;;;;;;;21.89;73.93;102508.93;105655;1270;125060;-89
2023/09/07 09:56:32;;;;;;;;;;;;;;;21.94;73.79;102507.20;105630;1270;66167;-88
2023/09/07 09:58:59;;;;;;;;;;;;;;;21.99;73.86;102505.96;105559;1270;124830;-89
2023/09/07 10:01:25;;;;;;;;;;;;;;;22.03;73.58;102502.41;105647;1273;59367;-88
2023/09/07 10:03:52;;;;;;;;;;;;;;;22.08;73.61;102499.58;105709;1275;61780;-87
2023/09/07 10:06:20;;;;;;;;;;;;;;;22.16;73.72;102503.36;105472;1271;124442;-87
2023/09/07 10:09:00;;;;;;;;;;;;;;;22.23;73.27;102507.51;105762;1269;65102;-87
2023/09/07 10:11:33;;;;;;;;;;;;;;;22.31;73.32;102504.36;105546;1270;125701;-87
2023/09/07 10:14:08;;;;;;;;;;;;;;;22.39;73.07;102503.14;105681;1271;61393;-88
2023/09/07 10:17:04;;;;;;;;;;;;;;;22.49;73.04;102496.39;105503;1271;125307;-87
2023/09/07 10:19:30;;;;;;;;;;;;;;;22.61;72.93;102497.13;105725;1270;73904;-87
2023/09/07 10:21:57;;;;;;;;;;;;;;;22.71;72.46;102497.52;105566;1270;66149;-88
2023/09/07 10:24:27;;;;;;;;;;;;;;;22.79;72.39;102497.71;105608;1270;124952;-88
2023/09/07 10:26:58;;;;;;;;;;;;;;;22.88;72.19;102497.37;105196;1270;61298;-88
2023/09/07 10:29:25;;;;;;;;;;;;;;;22.97;71.89;102495.95;105668;1270;125141;-88
2023/09/07 10:31:51;;;;;;;;;;;;;;;23.04;71.62;102494.38;105584;1269;72603;-86
2023/09/07 10:34:18;;;;;;;;;;;;;;;23.10;71.41;102489.55;105538;1270;124957;-87
2023/09/07 10:36:45;;;;;;;;;;;;;;;23.26;71.25;102488.48;105723;1270;71239;-87
2023/09/07 10:39:12;;;;;;;;;;;;;;;23.46;70.97;102483.80;105734;1270;61310;-88
2023/09/07 10:41:39;;;;;;;;;;;;;;;23.79;71.23;102478.39;105619;1270;124687;-87
2023/09/07 10:44:06;;;;;;;;;;;;;;;24.14;70.88;102477.92;105698;1270;74719;-88
2023/09/07 10:46:36;;;;;;;;;;;;;;;24.41;70.36;102476.73;105490;1271;124844;-87
2023/09/07 10:49:02;;;;;;;;;;;;;;;24.63;70.09;102480.59;105631;1268;72472;-88
2023/09/07 10:51:29;;;;;;;;;;;;;;;24.77;69.36;102483.92;105646;1270;61286;-87
2023/09/07 10:53:56;;;;;;;;;;;;;;;24.85;68.56;102484.94;105592;1269;125414;-88
2023/09/07 10:56:26;;;;;;;;;;;;;;;24.87;68.26;102483.13;105390;1273;74707;-87
2023/09/07 10:59:02;;;;;;;;;;;;;;;25.01;68.30;102477.45;105600;1270;125404;-88
2023/09/07 11:01:29;;;;;;;;;;;;;;;25.08;67.99;102475.98;105584;1269;71865;-87
2023/09/07 11:03:56;;;;;;;;;;;;;;;25.01;67.72;102474.95;105632;1271;61192;-88
2023/09/07 11:06:28;;;;;;;;;;;;;;;24.77;67.58;102470.44;105510;1269;124606;-87
2023/09/07 11:09:25;;;;;;;;;;;;;;;24.63;67.75;102472.86;105585;1276;72861;-89
2023/09/07 11:11:56;;;;;;;;;;;;;;;24.46;67.74;102469.90;105526;1269;125136;-88
2023/09/07 11:14:27;;;;;;;;;;;;;;;24.27;68.00;102469.98;105418;1269;71104;-88
2023/09/07 11:16:55;;;;;;;;;;;;;;;24.13;67.96;102473.98;105487;1269;124878;-89
2023/09/07 11:19:29;;;;;;;;;;;;;;;23.98;68.11;102472.26;105676;1270;61295;-90
2023/09/07 11:21:58;;;;;;;;;;;;;;;23.77;67.97;102470.69;105709;1268;73810;-89
2023/09/07 11:24:26;;;;;;;;;;;;;;;23.56;68.36;102475.91;105250;1270;124095;-88
2023/09/07 11:26:52;;;;;;;;;;;;;;;23.44;68.78;102474.67;105599;1270;72861;-87
2023/09/07 11:29:22;;;;;;;;;;;;;;;23.37;68.76;102477.90;105399;1270;124653;-88
2023/09/07 11:32:09;;;;;;;;;;;;;;;23.36;68.88;102477.36;105533;1276;61237;-87
2023/09/07 11:34:47;;;;;;;;;;;;;;;23.25;68.91;102477.37;105270;1269;125282;-88
2023/09/07 11:37:13;;;;;;;;;;;;;;;23.21;69.14;102478.45;105407;1276;66330;-88
2023/09/07 11:39:40;;;;;;;;;;;;;;;23.13;69.47;102477.73;105630;1270;70149;-88
2023/09/07 11:42:07;;;;;;;;;;;;;;;23.07;69.63;102474.33;105458;1275;125262;-88
2023/09/07 11:44:34;;;;;;;;;;;;;;;23.02;69.59;102472.69;105581;1270;61043;-88
2023/09/07 11:47:00;;;;;;;;;;;;;;;23.01;69.74;102470.17;105507;1275;124506;-88
2023/09/07 11:49:27;;;;;;;;;;;;;;;23.01;69.84;102470.36;105640;1271;64668;-88
2023/09/07 11:51:54;;;;;;;;;;;;;;;23.01;69.95;102467.48;105637;1271;72567;-89
2023/09/07 11:54:22;;;;;;;;;;;;;;;22.99;69.72;102466.95;105511;1275;124364;-87
2023/09/07 11:56:49;;;;;;;;;;;;;;;22.98;69.86;102466.77;105590;1270;60232;-88
2023/09/07 11:59:18;;;;;;;;;;;;;;;23.00;69.87;102464.09;105580;1270;125029;-89
2023/09/07 12:01:45;;;;;;;;;;;;;;;22.99;69.90;102466.59;105842;1270;66109;-87
2023/09/07 12:04:11;;;;;;;;;;;;;;;22.96;69.79;102463.54;105564;1270;71944;-88
2023/09/07 12:06:38;;;;;;;;;;;;;;;23.00;70.05;102462.84;105471;1275;124989;-87
2023/09/07 12:09:06;;;;;;;;;;;;;;;23.04;69.86;102464.47;105728;1267;61338;-90
2023/09/07 12:11:33;;;;;;;;;;;;;;;23.00;69.71;102460.50;105597;1275;124668;-88
2023/09/07 12:14:01;;;;;;;;;;;;;;;23.03;69.84;102461.77;105344;1270;66377;-88
2023/09/07 12:16:28;;;;;;;;;;;;;;;23.06;69.80;102462.33;105325;1270;124530;-88
2023/09/07 12:18:55;;;;;;;;;;;;;;;23.07;69.78;102462.86;105632;1269;61368;-89
2023/09/07 12:21:21;;;;;;;;;;;;;;;23.09;69.68;102460.84;105582;1270;61375;-89
2023/09/07 12:23:48;;;;;;;;;;;;;;;23.08;69.44;102461.27;105514;1270;124505;-88
2023/09/07 12:26:16;;;;;;;;;;;;;;;23.06;69.47;102463.05;105561;1273;66361;-93